Time;durP1;ratioP1;P1;durP2;ratioP2;P2;SDS_P1;SDS_P2;PMS_P1;PMS_P2;Temp;Humidity;BMP_temperature;BMP_pressure;BME280_temperature;BME280_humidity;BME280_pressure;Samples;Min_cycle;Max_cycle;Signal;HPM_P1;HPM_P2
2022/07/01 00:01:36;;;;;;;0.50;0.47;;;;;;;;;;4976127;28;20395;-88
2022/07/01 00:04:01;;;;;;;2.50;0.60;;;;;;;;;;4982074;28;20586;-89
2022/07/01 00:06:27;;;;;;;2.88;0.80;;;;;;;;;;4997351;28;20041;-90
2022/07/01 00:08:52;;;;;;;1.40;0.85;;;;;;;;;;4995116;28;20037;-89
2022/07/01 00:11:18;;;;;;;0.90;0.52;;;;;;;;;;4995989;28;20030;-87
2022/07/01 00:13:43;;;;;;;0.50;0.50;;;;;;;;;;4997648;28;20026;-88
2022/07/01 00:16:08;;;;;;;2.20;0.80;;;;;;;;;;4983419;28;20080;-88
2022/07/01 00:18:34;;;;;;;1.85;0.80;;;;;;;;;;4990128;28;20077;-85
2022/07/01 00:21:02;;;;;;;2.00;0.60;;;;;;;;;;5001833;28;20027;-88
2022/07/01 00:23:28;;;;;;;1.30;0.50;;;;;;;;;;4982961;28;20472;-88
2022/07/01 00:25:53;;;;;;;0.40;0.40;;;;;;;;;;4997800;28;20033;-87
2022/07/01 00:28:19;;;;;;;0.57;0.52;;;;;;;;;;4997652;28;20104;-86
2022/07/01 00:30:45;;;;;;;0.63;0.60;;;;;;;;;;4995100;28;20475;-87
2022/07/01 00:33:10;;;;;;;0.95;0.80;;;;;;;;;;4997805;28;20090;-86
2022/07/01 00:35:35;;;;;;;0.47;0.47;;;;;;;;;;4995371;28;20040;-86
2022/07/01 00:38:01;;;;;;;2.70;0.68;;;;;;;;;;5016762;28;20032;-87
2022/07/01 00:40:26;;;;;;;0.60;0.60;;;;;;;;;;4991617;28;20026;-88
2022/07/01 00:42:52;;;;;;;0.80;0.77;;;;;;;;;;4979322;28;20022;-87
2022/07/01 00:45:17;;;;;;;2.08;1.00;;;;;;;;;;4997802;28;20093;-87
2022/07/01 00:47:44;;;;;;;0.60;0.60;;;;;;;;;;4975730;28;20500;-87
2022/07/01 00:50:12;;;;;;;3.35;0.60;;;;;;;;;;4979361;28;20018;-88
2022/07/01 00:52:39;;;;;;;1.85;0.80;;;;;;;;;;4979180;28;20031;-87
2022/07/01 00:55:07;;;;;;;0.77;0.77;;;;;;;;;;5000656;28;20065;-87
2022/07/01 00:57:36;;;;;;;2.70;0.55;;;;;;;;;;4978972;28;20045;-87
2022/07/01 01:00:26;;;;;;;2.17;0.73;;;;;;;;;;4979515;28;20376;-86
2022/07/01 01:02:52;;;;;;;1.23;0.70;;;;;;;;;;4981800;28;20033;-87
2022/07/01 01:05:18;;;;;;;2.75;0.98;;;;;;;;;;4996741;28;20392;-88
2022/07/01 01:07:43;;;;;;;0.70;0.70;;;;;;;;;;4996029;28;20026;-88
2022/07/01 01:10:09;;;;;;;0.80;0.80;;;;;;;;;;4996944;28;20034;-87
2022/07/01 01:12:35;;;;;;;1.02;0.60;;;;;;;;;;4979480;28;20481;-86
2022/07/01 01:15:01;;;;;;;1.00;0.77;;;;;;;;;;4990940;28;20044;-86
2022/07/01 01:17:27;;;;;;;0.73;0.70;;;;;;;;;;4990404;28;20029;-87
2022/07/01 01:19:55;;;;;;;0.40;0.40;;;;;;;;;;4983056;28;20069;-86
2022/07/01 01:22:21;;;;;;;1.98;0.60;;;;;;;;;;4998745;28;20046;-87
2022/07/01 01:24:49;;;;;;;1.23;0.70;;;;;;;;;;5000515;28;20038;-86
2022/07/01 01:27:16;;;;;;;0.60;0.60;;;;;;;;;;4998713;28;20080;-86
2022/07/01 01:29:42;;;;;;;0.77;0.77;;;;;;;;;;4999059;28;20022;-86
2022/07/01 01:32:08;;;;;;;0.82;0.60;;;;;;;;;;4993734;28;20587;-85
2022/07/01 01:34:35;;;;;;;0.80;0.80;;;;;;;;;;4999026;28;20062;-87
2022/07/01 01:37:00;;;;;;;0.73;0.70;;;;;;;;;;4996820;28;20429;-87
2022/07/01 01:39:26;;;;;;;0.70;0.70;;;;;;;;;;4997176;28;20552;-88
2022/07/01 01:41:51;;;;;;;2.17;0.52;;;;;;;;;;4978887;28;20736;-87
2022/07/01 01:44:18;;;;;;;1.30;0.80;;;;;;;;;;4979300;28;20026;-87
2022/07/01 01:46:44;;;;;;;1.00;0.60;;;;;;;;;;4978944;28;20030;-88
2022/07/01 01:49:09;;;;;;;1.00;0.85;;;;;;;;;;4983540;28;20092;-88
2022/07/01 01:51:34;;;;;;;0.85;0.85;;;;;;;;;;5006133;28;20097;-88
2022/07/01 01:54:00;;;;;;;0.70;0.70;;;;;;;;;;4978887;28;20085;-87
2022/07/01 01:56:26;;;;;;;2.55;0.82;;;;;;;;;;4979150;28;20022;-87
2022/07/01 01:58:52;;;;;;;3.35;0.85;;;;;;;;;;4993804;28;20551;-86
2022/07/01 02:01:18;;;;;;;0.93;0.93;;;;;;;;;;5003352;28;20054;-86
2022/07/01 02:03:46;;;;;;;3.05;0.80;;;;;;;;;;4993464;28;20029;-87
2022/07/01 02:06:12;;;;;;;1.17;0.90;;;;;;;;;;4979045;28;20034;-86
2022/07/01 02:08:38;;;;;;;1.55;1.05;;;;;;;;;;4978937;28;20065;-86
2022/07/01 02:11:04;;;;;;;1.45;1.23;;;;;;;;;;4978601;28;20059;-88
2022/07/01 02:13:29;;;;;;;1.30;1.20;;;;;;;;;;4987518;28;20041;-90
2022/07/01 02:15:56;;;;;;;1.23;0.90;;;;;;;;;;5004346;28;20030;-87
2022/07/01 02:18:21;;;;;;;1.63;1.20;;;;;;;;;;4978314;28;20041;-89
2022/07/01 02:20:47;;;;;;;3.38;1.05;;;;;;;;;;4982762;28;20407;-89
2022/07/01 02:23:12;;;;;;;1.30;1.02;;;;;;;;;;5016260;28;20207;-89
2022/07/01 02:25:37;;;;;;;1.45;1.08;;;;;;;;;;5002037;28;20126;-89
2022/07/01 02:28:03;;;;;;;1.15;1.10;;;;;;;;;;4977335;28;20041;-87
2022/07/01 02:30:30;;;;;;;1.10;1.10;;;;;;;;;;4993322;28;20498;-89
2022/07/01 02:32:56;;;;;;;2.13;1.00;;;;;;;;;;4995736;28;20092;-87
2022/07/01 02:35:22;;;;;;;1.27;1.00;;;;;;;;;;4997355;28;20053;-87
2022/07/01 02:37:48;;;;;;;0.80;0.80;;;;;;;;;;4996430;28;20070;-88
2022/07/01 02:40:13;;;;;;;1.00;1.00;;;;;;;;;;4998422;28;20038;-87
2022/07/01 02:42:39;;;;;;;2.28;1.05;;;;;;;;;;5016300;28;20037;-87
2022/07/01 02:45:06;;;;;;;2.20;1.17;;;;;;;;;;4998390;28;20026;-87
2022/07/01 02:47:36;;;;;;;1.10;1.00;;;;;;;;;;4978810;28;20030;-87
2022/07/01 02:50:03;;;;;;;1.30;0.95;;;;;;;;;;4996118;28;20030;-87
2022/07/01 02:52:36;;;;;;;2.05;1.10;;;;;;;;;;5014536;28;20025;-89
2022/07/01 02:55:03;;;;;;;0.75;0.75;;;;;;;;;;4999155;28;20018;-91
2022/07/01 02:57:29;;;;;;;2.03;1.00;;;;;;;;;;4996453;28;20508;-89
2022/07/01 02:59:54;;;;;;;1.23;0.70;;;;;;;;;;4995026;28;20037;-89
2022/07/01 03:02:20;;;;;;;0.80;0.70;;;;;;;;;;4996304;28;20391;-90
2022/07/01 03:04:46;;;;;;;0.80;0.80;;;;;;;;;;4981652;28;20026;-87
2022/07/01 03:07:12;;;;;;;2.83;0.90;;;;;;;;;;4982630;28;20033;-89
2022/07/01 03:09:39;;;;;;;4.28;0.95;;;;;;;;;;4981687;28;20057;-89
2022/07/01 03:12:24;;;;;;;1.50;1.08;;;;;;;;;;4995505;28;20181;-89
2022/07/01 03:14:54;;;;;;;1.58;1.35;;;;;;;;;;4977088;28;20080;-89
2022/07/01 03:17:19;;;;;;;0.80;0.80;;;;;;;;;;4967631;28;20018;-90
2022/07/01 03:19:48;;;;;;;1.17;1.17;;;;;;;;;;4996218;28;20030;-90
2022/07/01 03:22:13;;;;;;;0.90;0.90;;;;;;;;;;4979872;28;20026;-91
2022/07/01 03:24:41;;;;;;;1.30;1.05;;;;;;;;;;4982243;28;20042;-91
2022/07/01 03:27:07;;;;;;;3.80;0.90;;;;;;;;;;4981192;28;20023;-91
2022/07/01 03:29:33;;;;;;;3.35;1.40;;;;;;;;;;4980290;28;20030;-90
2022/07/01 03:31:58;;;;;;;1.58;1.48;;;;;;;;;;4981706;28;20018;-92
2022/07/01 03:34:23;;;;;;;1.00;1.00;;;;;;;;;;4960633;28;20127;-90
2022/07/01 03:36:49;;;;;;;1.52;1.25;;;;;;;;;;4988633;28;20034;-90
2022/07/01 03:39:14;;;;;;;1.90;1.30;;;;;;;;;;4998340;28;20030;-90
2022/07/01 03:41:41;;;;;;;2.15;1.30;;;;;;;;;;4998592;28;20450;-91
2022/07/01 03:44:06;;;;;;;0.93;0.93;;;;;;;;;;4999578;28;20018;-90
2022/07/01 03:46:32;;;;;;;0.90;0.90;;;;;;;;;;4995876;28;20030;-91
2022/07/01 03:48:58;;;;;;;1.00;1.00;;;;;;;;;;4979316;28;20049;-90
2022/07/01 03:51:24;;;;;;;1.10;1.10;;;;;;;;;;4991274;28;20036;-90
2022/07/01 03:56:33;;;;;;;2.03;1.30;;;;;;;;;;5002818;28;20032;-91
2022/07/01 03:58:59;;;;;;;0.95;0.95;;;;;;;;;;4980011;28;20022;-91
2022/07/01 04:01:24;;;;;;;1.05;0.98;;;;;;;;;;4979861;28;20089;-89
2022/07/01 04:03:50;;;;;;;1.02;1.02;;;;;;;;;;4979468;28;20026;-88
2022/07/01 04:06:16;;;;;;;0.88;0.88;;;;;;;;;;5008297;28;20030;-89
2022/07/01 04:08:42;;;;;;;4.35;1.50;;;;;;;;;;5016797;28;20026;-89
2022/07/01 04:11:08;;;;;;;1.10;1.10;;;;;;;;;;4987709;28;20041;-89
2022/07/01 04:13:37;;;;;;;0.90;0.90;;;;;;;;;;4995532;28;20032;-89
2022/07/01 04:16:03;;;;;;;1.25;1.20;;;;;;;;;;5005907;28;20065;-88
2022/07/01 04:18:29;;;;;;;5.20;1.30;;;;;;;;;;4982208;28;20117;-89
2022/07/01 04:23:39;;;;;;;1.33;1.23;;;;;;;;;;4996613;28;20041;-89
2022/07/01 04:26:10;;;;;;;1.55;1.25;;;;;;;;;;4997311;28;20058;-89
2022/07/01 04:28:36;;;;;;;1.27;1.20;;;;;;;;;;4979894;28;20030;-90
2022/07/01 04:31:02;;;;;;;1.48;1.38;;;;;;;;;;4980113;28;20029;-89
2022/07/01 04:33:27;;;;;;;1.20;1.20;;;;;;;;;;4964819;28;20030;-90
2022/07/01 04:35:57;;;;;;;1.35;1.25;;;;;;;;;;4980561;28;20088;-90
2022/07/01 04:38:23;;;;;;;1.52;1.42;;;;;;;;;;4980637;28;20101;-92
2022/07/01 04:43:34;;;;;;;1.60;1.20;;;;;;;;;;4996771;28;20436;-90
2022/07/01 04:46:00;;;;;;;1.70;1.05;;;;;;;;;;4996712;28;20022;-91
2022/07/01 04:48:25;;;;;;;2.80;1.40;;;;;;;;;;4996803;28;20034;-90
2022/07/01 04:50:55;;;;;;;1.73;1.40;;;;;;;;;;4979062;28;20027;-90
2022/07/01 04:53:21;;;;;;;2.03;1.30;;;;;;;;;;4978943;28;20023;-89
2022/07/01 04:55:46;;;;;;;1.48;1.38;;;;;;;;;;4996664;28;20033;-91
2022/07/01 04:58:13;;;;;;;1.40;1.30;;;;;;;;;;4996074;28;20034;-90
2022/07/01 05:00:38;;;;;;;1.25;1.15;;;;;;;;;;4999288;28;20041;-90
2022/07/01 05:03:03;;;;;;;2.28;1.40;;;;;;;;;;4988269;28;20089;-91
2022/07/01 05:05:29;;;;;;;1.55;1.45;;;;;;;;;;5006885;28;20029;-91
2022/07/01 05:07:54;;;;;;;2.83;1.38;;;;;;;;;;4988190;28;20027;-90
2022/07/01 05:10:20;;;;;;;2.65;1.17;;;;;;;;;;5002072;28;20045;-91
2022/07/01 05:12:45;;;;;;;2.30;1.27;;;;;;;;;;4983160;28;20014;-91
2022/07/01 05:15:15;;;;;;;2.17;1.55;;;;;;;;;;5001985;28;20434;-91
2022/07/01 05:23:24;;;;;;;2.50;1.40;;;;;;;;;;5001950;28;20124;-91
2022/07/01 05:25:54;;;;;;;1.90;1.50;;;;;;;;;;5000157;28;20049;-91
2022/07/01 05:28:20;;;;;;;2.88;1.63;;;;;;;;;;4967368;28;20026;-91
2022/07/01 05:30:55;;;;;;;1.33;1.20;;;;;;;;;;5001665;28;20029;-91
2022/07/01 05:33:26;;;;;;;1.92;1.40;;;;;;;;;;4979601;28;20041;-91
2022/07/01 05:35:52;;;;;;;3.08;1.40;;;;;;;;;;4989320;28;20026;-91
2022/07/01 05:38:17;;;;;;;4.20;1.42;;;;;;;;;;4981787;28;20530;-90
2022/07/01 05:40:43;;;;;;;1.60;1.50;;;;;;;;;;4981905;28;20240;-90
2022/07/01 05:43:11;;;;;;;3.22;1.70;;;;;;;;;;4999433;28;20053;-90
2022/07/01 05:45:41;;;;;;;2.15;1.95;;;;;;;;;;4999527;28;20033;-91
2022/07/01 05:48:10;;;;;;;2.10;1.48;;;;;;;;;;4999785;28;20037;-90
2022/07/01 05:50:35;;;;;;;3.70;1.80;;;;;;;;;;4984058;28;20026;-91
2022/07/01 05:53:00;;;;;;;4.57;1.92;;;;;;;;;;4986002;28;20065;-90
2022/07/01 05:55:26;;;;;;;2.85;1.45;;;;;;;;;;5004606;28;20026;-88
2022/07/01 05:57:52;;;;;;;1.90;1.60;;;;;;;;;;5005559;28;20034;-89
2022/07/01 06:00:18;;;;;;;4.00;1.67;;;;;;;;;;5001250;28;20431;-90
2022/07/01 06:02:43;;;;;;;3.72;1.70;;;;;;;;;;5001071;28;20076;-87
2022/07/01 06:05:09;;;;;;;4.90;1.77;;;;;;;;;;4982644;28;20109;-89
2022/07/01 06:07:34;;;;;;;4.57;1.77;;;;;;;;;;4982097;28;20034;-89
2022/07/01 06:09:59;;;;;;;3.13;1.85;;;;;;;;;;4999016;28;20097;-88
2022/07/01 06:12:25;;;;;;;2.45;1.77;;;;;;;;;;4998266;28;20018;-88
2022/07/01 06:14:50;;;;;;;5.18;1.70;;;;;;;;;;4998941;28;20019;-90
2022/07/01 06:17:17;;;;;;;4.05;1.63;;;;;;;;;;4999239;28;20030;-90
2022/07/01 06:19:42;;;;;;;3.20;1.83;;;;;;;;;;5011306;28;20041;-87
2022/07/01 06:22:08;;;;;;;1.67;1.48;;;;;;;;;;4988872;28;20023;-89
2022/07/01 06:24:34;;;;;;;4.90;1.77;;;;;;;;;;4980995;28;20400;-90
2022/07/01 06:26:59;;;;;;;3.85;1.70;;;;;;;;;;4998093;28;20481;-90
2022/07/01 06:29:29;;;;;;;6.20;1.90;;;;;;;;;;4982637;28;20014;-89
2022/07/01 06:31:54;;;;;;;1.90;1.40;;;;;;;;;;4991984;28;20350;-88
2022/07/01 06:34:22;;;;;;;4.68;2.00;;;;;;;;;;4977285;28;20029;-90
2022/07/01 06:36:48;;;;;;;1.90;1.48;;;;;;;;;;5002523;28;20392;-91
2022/07/01 06:39:13;;;;;;;4.07;1.75;;;;;;;;;;4997575;28;20464;-90
2022/07/01 06:41:38;;;;;;;2.10;1.80;;;;;;;;;;4981330;28;20030;-89
2022/07/01 06:44:06;;;;;;;3.35;1.67;;;;;;;;;;4981249;28;20102;-91
2022/07/01 06:46:33;;;;;;;2.97;1.98;;;;;;;;;;4989776;28;20053;-88
2022/07/01 06:48:59;;;;;;;2.00;1.80;;;;;;;;;;4983166;28;20087;-90
2022/07/01 06:51:26;;;;;;;5.15;1.70;;;;;;;;;;4999300;28;20073;-89
2022/07/01 06:53:51;;;;;;;2.42;1.92;;;;;;;;;;4981144;28;20551;-89
2022/07/01 06:56:17;;;;;;;2.08;1.88;;;;;;;;;;4981794;28;20049;-90
2022/07/01 06:58:43;;;;;;;3.60;2.10;;;;;;;;;;4998039;28;20702;-90
2022/07/01 07:01:09;;;;;;;6.07;1.85;;;;;;;;;;4980775;28;20093;-90
2022/07/01 07:03:35;;;;;;;1.80;1.70;;;;;;;;;;4980522;28;20021;-87
2022/07/01 07:06:02;;;;;;;4.30;1.95;;;;;;;;;;4998490;28;20531;-87
2022/07/01 07:08:30;;;;;;;3.30;1.80;;;;;;;;;;4999073;28;20050;-87
2022/07/01 07:10:56;;;;;;;2.10;1.48;;;;;;;;;;4998776;28;20025;-87
2022/07/01 07:13:23;;;;;;;5.78;2.00;;;;;;;;;;4999152;28;20446;-87
2022/07/01 07:15:49;;;;;;;3.67;1.60;;;;;;;;;;4981320;28;20034;-88
2022/07/01 07:18:14;;;;;;;1.90;1.73;;;;;;;;;;4997077;28;20022;-86
2022/07/01 07:20:40;;;;;;;2.47;1.88;;;;;;;;;;4993719;28;20030;-86
2022/07/01 07:23:05;;;;;;;3.15;1.60;;;;;;;;;;4997371;28;20049;-86
2022/07/01 07:25:31;;;;;;;2.72;1.40;;;;;;;;;;4985736;28;20018;-85
2022/07/01 07:27:56;;;;;;;1.40;1.30;;;;;;;;;;5003481;28;20049;-85
2022/07/01 07:30:22;;;;;;;3.00;1.55;;;;;;;;;;5004442;28;20033;-85
2022/07/01 07:32:47;;;;;;;1.85;1.48;;;;;;;;;;5003545;28;20445;-85
2022/07/01 07:35:13;;;;;;;3.45;1.85;;;;;;;;;;5004486;28;20022;-85
2022/07/01 07:37:39;;;;;;;4.25;1.52;;;;;;;;;;5003497;28;20030;-84
2022/07/01 07:40:09;;;;;;;8.05;2.20;;;;;;;;;;5004756;28;20045;-84
2022/07/01 07:42:35;;;;;;;3.63;1.95;;;;;;;;;;5003062;28;20034;-85
2022/07/01 07:45:01;;;;;;;6.45;2.55;;;;;;;;;;5000117;28;20026;-85
2022/07/01 07:47:26;;;;;;;8.45;2.38;;;;;;;;;;5000990;28;20435;-85
2022/07/01 07:49:52;;;;;;;4.00;1.90;;;;;;;;;;4999928;28;20034;-84
2022/07/01 07:52:17;;;;;;;2.55;1.80;;;;;;;;;;4999658;28;20033;-86
2022/07/01 07:54:42;;;;;;;1.92;1.80;;;;;;;;;;4998364;28;20042;-86
2022/07/01 07:57:08;;;;;;;2.25;1.55;;;;;;;;;;4987084;28;20044;-86
2022/07/01 07:59:35;;;;;;;3.35;1.60;;;;;;;;;;5018775;28;20113;-86
2022/07/01 08:02:00;;;;;;;2.58;1.90;;;;;;;;;;5014885;28;20033;-86
2022/07/01 08:04:26;;;;;;;1.75;1.65;;;;;;;;;;4990145;28;20476;-87
2022/07/01 08:06:51;;;;;;;1.50;1.40;;;;;;;;;;4997261;28;20030;-86
2022/07/01 08:09:16;;;;;;;1.50;1.40;;;;;;;;;;5008698;23;20039;-87
2022/07/01 08:11:42;;;;;;;2.85;1.42;;;;;;;;;;4988943;28;20030;-86
2022/07/01 08:14:07;;;;;;;1.70;1.60;;;;;;;;;;4976861;28;20426;-85
2022/07/01 08:16:33;;;;;;;2.83;1.90;;;;;;;;;;4977727;28;20061;-85
2022/07/01 08:18:58;;;;;;;2.05;1.70;;;;;;;;;;4997715;28;20022;-84
2022/07/01 08:21:24;;;;;;;2.40;1.70;;;;;;;;;;4953034;28;20035;-84
2022/07/01 08:23:49;;;;;;;2.53;1.63;;;;;;;;;;4973775;28;20103;-86
2022/07/01 08:26:16;;;;;;;3.05;1.75;;;;;;;;;;4955809;28;20114;-86
2022/07/01 08:28:42;;;;;;;2.17;1.70;;;;;;;;;;4971827;28;20027;-87
2022/07/01 08:31:07;;;;;;;1.98;1.83;;;;;;;;;;4957019;28;20422;-88
2022/07/01 08:33:33;;;;;;;2.83;1.75;;;;;;;;;;4946579;28;20054;-87
2022/07/01 08:35:58;;;;;;;2.08;1.52;;;;;;;;;;4944002;28;20086;-86
2022/07/01 08:38:24;;;;;;;4.47;1.92;;;;;;;;;;4975582;28;20034;-87
2022/07/01 08:40:49;;;;;;;2.20;1.80;;;;;;;;;;4958842;28;20117;-87
2022/07/01 08:43:15;;;;;;;3.53;1.60;;;;;;;;;;4959921;28;20034;-87
2022/07/01 08:45:41;;;;;;;2.45;2.05;;;;;;;;;;4969079;28;20114;-87
2022/07/01 08:48:06;;;;;;;2.00;1.80;;;;;;;;;;4954465;28;20137;-87
2022/07/01 08:50:40;;;;;;;3.08;2.28;;;;;;;;;;4953553;28;20035;-88
2022/07/01 08:53:07;;;;;;;5.32;2.05;;;;;;;;;;4977788;28;20101;-87
2022/07/01 08:56:40;;;;;;;3.17;2.15;;;;;;;;;;4977220;28;20027;-88
2022/07/01 08:58:18;;;;;;;2.92;2.03;;;;;;;;;;4975895;28;20030;-87
2022/07/01 09:00:43;;;;;;;2.53;2.05;;;;;;;;;;4976541;28;20038;-87
2022/07/01 09:03:08;;;;;;;2.13;1.98;;;;;;;;;;4974974;28;20023;-87
2022/07/01 09:05:36;;;;;;;4.32;1.98;;;;;;;;;;4977799;28;20384;-87
2022/07/01 09:08:03;;;;;;;2.80;1.67;;;;;;;;;;4959863;28;20030;-87
2022/07/01 09:10:33;;;;;;;3.33;1.70;;;;;;;;;;4960722;28;20037;-87
2022/07/01 09:13:05;;;;;;;3.03;1.38;;;;;;;;;;4978400;28;20173;-86
2022/07/01 09:15:31;;;;;;;6.32;1.40;;;;;;;;;;4961466;28;20054;-87
2022/07/01 09:18:09;;;;;;;3.25;1.52;;;;;;;;;;4973627;28;20034;-87
2022/07/01 09:20:36;;;;;;;2.10;1.42;;;;;;;;;;4971139;28;20097;-85
2022/07/01 09:23:11;;;;;;;1.75;1.65;;;;;;;;;;4996777;28;20027;-87
2022/07/01 09:25:44;;;;;;;2.35;1.70;;;;;;;;;;4958794;28;20042;-87
2022/07/01 09:28:14;;;;;;;6.30;2.13;;;;;;;;;;4958951;28;20030;-87
2022/07/01 09:30:43;;;;;;;2.58;1.48;;;;;;;;;;4959962;28;20026;-86
2022/07/01 09:33:11;;;;;;;1.60;1.50;;;;;;;;;;4986467;28;20053;-88
2022/07/01 09:35:37;;;;;;;2.22;1.42;;;;;;;;;;4969073;28;20023;-86
2022/07/01 09:38:04;;;;;;;1.45;1.35;;;;;;;;;;4976351;28;20022;-87
2022/07/01 09:41:03;;;;;;;2.75;1.50;;;;;;;;;;4976389;28;20023;-86
2022/07/01 09:43:31;;;;;;;2.05;1.38;;;;;;;;;;4959356;28;20126;-86
2022/07/01 09:46:01;;;;;;;5.78;1.40;;;;;;;;;;4977468;28;20046;-87
2022/07/01 09:48:43;;;;;;;3.40;1.35;;;;;;;;;;4959128;28;20019;-87
2022/07/01 09:51:10;;;;;;;1.67;1.58;;;;;;;;;;4959206;28;20019;-87
2022/07/01 09:53:35;;;;;;;5.38;1.58;;;;;;;;;;4958996;28;20117;-86
2022/07/01 09:56:01;;;;;;;1.45;1.13;;;;;;;;;;4958527;28;20509;-86
2022/07/01 09:58:27;;;;;;;1.23;1.13;;;;;;;;;;4976182;28;20076;-86
2022/07/01 10:00:53;;;;;;;1.30;1.23;;;;;;;;;;4958603;28;20304;-87
2022/07/01 10:03:20;;;;;;;5.03;1.38;;;;;;;;;;4975399;28;20046;-87
2022/07/01 10:05:57;;;;;;;3.10;1.25;;;;;;;;;;4996185;28;20018;-86
2022/07/01 10:08:41;;;;;;;3.75;1.40;;;;;;;;;;4977932;28;20092;-86
2022/07/01 10:11:39;;;;;;;2.03;1.58;;;;;;;;;;4962581;28;20026;-86
2022/07/01 10:14:07;;;;;;;1.88;1.35;;;;;;;;;;4958657;28;20757;-86
2022/07/01 10:16:35;;;;;;;2.17;1.20;;;;;;;;;;4975793;28;20042;-86
2022/07/01 10:19:25;;;;;;;3.25;1.45;;;;;;;;;;4958521;28;20106;-86
2022/07/01 10:21:53;;;;;;;3.30;1.23;;;;;;;;;;4958866;28;20023;-87
2022/07/01 10:24:19;;;;;;;2.40;1.40;;;;;;;;;;4974459;28;20042;-87
2022/07/01 10:26:46;;;;;;;3.50;1.10;;;;;;;;;;4975655;28;20108;-86
2022/07/01 10:29:27;;;;;;;3.80;1.30;;;;;;;;;;4958581;28;20071;-88
2022/07/01 10:31:53;;;;;;;1.17;1.10;;;;;;;;;;4975738;28;20412;-86
2022/07/01 10:34:19;;;;;;;4.30;1.30;;;;;;;;;;4975676;28;20023;-87
2022/07/01 10:36:45;;;;;;;2.47;1.10;;;;;;;;;;4958232;28;20118;-86
2022/07/01 10:39:17;;;;;;;2.03;1.10;;;;;;;;;;4977343;28;20054;-86
2022/07/01 10:41:45;;;;;;;;;;;;;;;;;;4977078;28;20050;-87
2022/07/01 10:44:13;;;;;;;1.70;1.10;;;;;;;;;;4976839;28;19922;-86
2022/07/01 10:46:45;;;;;;;0.73;0.70;;;;;;;;;;4974826;28;20055;-84
2022/07/01 10:49:16;;;;;;;2.50;1.10;;;;;;;;;;4975706;28;20031;-86
2022/07/01 10:51:48;;;;;;;1.35;1.25;;;;;;;;;;4975688;28;20023;-86
2022/07/01 10:54:33;;;;;;;1.70;1.25;;;;;;;;;;4967191;28;20041;-86
2022/07/01 10:57:19;;;;;;;1.75;0.85;;;;;;;;;;4957396;28;20037;-85
2022/07/01 10:59:59;;;;;;;3.58;0.98;;;;;;;;;;4952694;28;20034;-85
2022/07/01 11:02:29;;;;;;;1.05;1.00;;;;;;;;;;4956294;28;20027;-85
2022/07/01 11:05:03;;;;;;;1.13;0.95;;;;;;;;;;4960458;28;20190;-85
2022/07/01 11:07:34;;;;;;;1.83;1.15;;;;;;;;;;4972618;28;20034;-85
2022/07/01 11:10:01;;;;;;;1.23;1.08;;;;;;;;;;4951310;29;20031;-85
2022/07/01 11:12:28;;;;;;;1.27;0.85;;;;;;;;;;4971314;28;20034;-85
2022/07/01 11:14:57;;;;;;;3.00;1.10;;;;;;;;;;4956618;28;20027;-85
2022/07/01 11:17:23;;;;;;;1.23;1.00;;;;;;;;;;4959385;28;20102;-84
2022/07/01 11:19:50;;;;;;;1.80;1.15;;;;;;;;;;4970957;28;20058;-85
2022/07/01 11:22:23;;;;;;;1.67;1.15;;;;;;;;;;4960636;28;20050;-86
2022/07/01 11:24:54;;;;;;;4.05;1.17;;;;;;;;;;4971812;28;20480;-85
2022/07/01 11:27:21;;;;;;;2.25;1.25;;;;;;;;;;4956000;28;20031;-85
2022/07/01 11:29:57;;;;;;;3.00;1.08;;;;;;;;;;4955567;28;20104;-85
2022/07/01 11:32:32;;;;;;;0.85;0.70;;;;;;;;;;4955288;28;20029;-85
2022/07/01 11:34:59;;;;;;;2.25;1.73;;;;;;;;;;4947354;28;20105;-86
2022/07/01 11:40:17;;;;;;;1.10;0.80;;;;;;;;;;4963812;28;20121;-86
2022/07/01 11:42:43;;;;;;;0.70;0.65;;;;;;;;;;4937813;29;20665;-87
2022/07/01 11:45:09;;;;;;;0.95;0.93;;;;;;;;;;4965597;28;20077;-84
2022/07/01 11:47:34;;;;;;;1.95;0.70;;;;;;;;;;4938270;28;20441;-86
2022/07/01 11:50:00;;;;;;;1.90;0.90;;;;;;;;;;4972003;28;20031;-86
2022/07/01 11:52:26;;;;;;;1.10;0.90;;;;;;;;;;4972218;28;20441;-84
2022/07/01 11:54:59;;;;;;;0.63;0.63;;;;;;;;;;4992235;28;20506;-85
2022/07/01 11:57:29;;;;;;;2.33;1.10;;;;;;;;;;4967613;28;20475;-84
2022/07/01 11:59:56;;;;;;;1.23;0.90;;;;;;;;;;4987218;28;20073;-84
2022/07/01 12:02:23;;;;;;;1.35;0.88;;;;;;;;;;4972636;28;20420;-85
2022/07/01 12:04:50;;;;;;;2.47;0.90;;;;;;;;;;4962889;28;20034;-85
2022/07/01 12:07:21;;;;;;;0.82;0.82;;;;;;;;;;4965532;28;20026;-86
2022/07/01 12:09:47;;;;;;;0.70;0.70;;;;;;;;;;4959951;28;20395;-82
2022/07/01 12:12:20;;;;;;;2.08;0.93;;;;;;;;;;4976627;28;20407;-83
2022/07/01 12:14:57;;;;;;;2.10;0.95;;;;;;;;;;4959411;28;20463;-84
2022/07/01 12:17:24;;;;;;;4.57;0.60;;;;;;;;;;4977138;28;20026;-83
2022/07/01 12:19:51;;;;;;;3.75;0.88;;;;;;;;;;4984887;28;20527;-83
2022/07/01 12:22:23;;;;;;;3.55;0.82;;;;;;;;;;4988264;28;20026;-82
2022/07/01 12:24:49;;;;;;;3.70;1.30;;;;;;;;;;4982115;28;20184;-84
2022/07/01 12:27:14;;;;;;;2.67;1.05;;;;;;;;;;4974534;28;20081;-83
2022/07/01 12:29:43;;;;;;;2.22;1.10;;;;;;;;;;4978277;28;20031;-83
2022/07/01 12:32:11;;;;;;;1.13;1.13;;;;;;;;;;4978238;28;20050;-83
2022/07/01 12:34:49;;;;;;;0.60;0.60;;;;;;;;;;4956026;28;20150;-83
2022/07/01 12:37:15;;;;;;;0.85;0.70;;;;;;;;;;4960570;28;20027;-83
2022/07/01 12:39:47;;;;;;;1.58;0.90;;;;;;;;;;4975613;28;20126;-83
2022/07/01 12:42:29;;;;;;;1.42;0.77;;;;;;;;;;4958804;28;20031;-83
2022/07/01 12:44:57;;;;;;;2.47;1.05;;;;;;;;;;4976418;28;20048;-84
2022/07/01 12:47:31;;;;;;;1.55;0.95;;;;;;;;;;4966525;28;20472;-83
2022/07/01 12:50:20;;;;;;;1.27;1.10;;;;;;;;;;4977974;28;20030;-83
2022/07/01 12:53:09;;;;;;;4.28;1.02;;;;;;;;;;4993023;28;20022;-83
2022/07/01 12:55:39;;;;;;;0.98;0.80;;;;;;;;;;4976927;28;20050;-83
2022/07/01 12:58:26;;;;;;;4.25;0.80;;;;;;;;;;4971927;28;20090;-84
2022/07/01 13:00:53;;;;;;;5.40;1.15;;;;;;;;;;4995208;28;20433;-83
2022/07/01 13:03:22;;;;;;;2.58;1.00;;;;;;;;;;4971098;28;20019;-83
2022/07/01 13:05:48;;;;;;;1.00;0.77;;;;;;;;;;4981306;28;20030;-83
2022/07/01 13:08:14;;;;;;;1.92;1.27;;;;;;;;;;4975334;28;20461;-83
2022/07/01 13:10:41;;;;;;;1.73;0.95;;;;;;;;;;4975752;28;20023;-83
2022/07/01 13:13:06;;;;;;;1.67;1.05;;;;;;;;;;4977355;28;20051;-83
2022/07/01 13:15:32;;;;;;;2.15;1.00;;;;;;;;;;4977797;28;20077;-82
2022/07/01 13:18:04;;;;;;;1.52;0.90;;;;;;;;;;4977989;28;20026;-83
2022/07/01 13:20:30;;;;;;;2.53;0.80;;;;;;;;;;4964438;28;20034;-84
2022/07/01 13:22:55;;;;;;;0.75;0.75;;;;;;;;;;4987200;28;20031;-83
2022/07/01 13:25:21;;;;;;;1.17;1.08;;;;;;;;;;4982843;28;20026;-82
2022/07/01 13:27:47;;;;;;;3.53;1.00;;;;;;;;;;4956951;28;20022;-82
2022/07/01 13:30:13;;;;;;;2.90;0.98;;;;;;;;;;4983711;28;20054;-82
2022/07/01 13:32:39;;;;;;;1.50;0.75;;;;;;;;;;4988445;28;20078;-83
2022/07/01 13:35:06;;;;;;;1.38;0.95;;;;;;;;;;4971686;28;20014;-83
2022/07/01 13:37:32;;;;;;;1.02;0.90;;;;;;;;;;4956436;28;20052;-83
2022/07/01 13:39:57;;;;;;;2.92;1.17;;;;;;;;;;4953513;28;20461;-83
2022/07/01 13:42:23;;;;;;;2.13;0.93;;;;;;;;;;4955370;28;20040;-82
2022/07/01 13:44:50;;;;;;;1.70;0.80;;;;;;;;;;4966342;28;20031;-83
2022/07/01 13:47:15;;;;;;;1.30;0.88;;;;;;;;;;4967621;28;20439;-83
2022/07/01 13:49:53;;;;;;;0.95;0.95;;;;;;;;;;4981979;28;20456;-83
2022/07/01 13:52:23;;;;;;;0.85;0.63;;;;;;;;;;4952179;28;20460;-83
2022/07/01 13:54:49;;;;;;;1.20;0.63;;;;;;;;;;4930981;29;20042;-83
2022/07/01 13:57:15;;;;;;;3.17;1.50;;;;;;;;;;4956573;28;20046;-83
2022/07/01 13:59:41;;;;;;;0.98;0.98;;;;;;;;;;4979611;28;20035;-84
2022/07/01 14:02:27;;;;;;;1.00;1.00;;;;;;;;;;4980100;28;20086;-84
2022/07/01 14:04:53;;;;;;;1.38;1.05;;;;;;;;;;4987673;28;20135;-84
2022/07/01 14:07:18;;;;;;;1.10;1.00;;;;;;;;;;4973174;28;20031;-84
2022/07/01 14:09:44;;;;;;;1.98;1.15;;;;;;;;;;4981217;28;20118;-84
2022/07/01 14:12:10;;;;;;;1.27;0.85;;;;;;;;;;5001742;23;20051;-82
2022/07/01 14:14:36;;;;;;;2.58;1.15;;;;;;;;;;4979216;28;20128;-81
2022/07/01 14:17:02;;;;;;;2.28;1.20;;;;;;;;;;4972355;28;20078;-81
2022/07/01 14:19:27;;;;;;;1.48;1.00;;;;;;;;;;4966093;28;20027;-81
2022/07/01 14:21:54;;;;;;;1.17;0.80;;;;;;;;;;4971799;28;20023;-84
2022/07/01 14:24:20;;;;;;;1.20;1.10;;;;;;;;;;4969962;28;20510;-84
2022/07/01 14:26:46;;;;;;;1.33;1.02;;;;;;;;;;4967085;28;20058;-83
2022/07/01 14:29:12;;;;;;;1.75;1.30;;;;;;;;;;4971976;28;20026;-82
2022/07/01 14:31:37;;;;;;;2.58;1.02;;;;;;;;;;4977371;28;20396;-83
2022/07/01 14:34:02;;;;;;;1.35;0.90;;;;;;;;;;4974487;28;20495;-82
2022/07/01 14:36:28;;;;;;;1.77;0.90;;;;;;;;;;4968227;28;20039;-86
2022/07/01 14:38:53;;;;;;;1.98;1.05;;;;;;;;;;4977788;28;20031;-84
2022/07/01 14:41:19;;;;;;;3.28;1.13;;;;;;;;;;4972193;28;20085;-81
2022/07/01 14:43:44;;;;;;;3.53;0.90;;;;;;;;;;4968845;28;20386;-83
2022/07/01 14:46:13;;;;;;;1.70;0.93;;;;;;;;;;4976539;28;20089;-80
2022/07/01 14:48:39;;;;;;;3.50;1.33;;;;;;;;;;4966394;28;20075;-83
2022/07/01 14:51:05;;;;;;;1.67;0.82;;;;;;;;;;4969663;28;20030;-82
2022/07/01 14:53:31;;;;;;;1.73;0.90;;;;;;;;;;4976230;28;20046;-82
2022/07/01 14:55:57;;;;;;;1.90;1.00;;;;;;;;;;4976863;28;20034;-83
2022/07/01 14:58:22;;;;;;;2.03;1.17;;;;;;;;;;4972245;28;20031;-86
2022/07/01 15:00:48;;;;;;;1.35;1.05;;;;;;;;;;4976178;28;20029;-82
2022/07/01 15:03:13;;;;;;;8.68;1.15;;;;;;;;;;4966706;28;20039;-84